Forside
METAR-TAF:

METAR-TAF

Lufthavne :

Sapporo, Japan

Breddekreds: 43-07N, længdekreds: 141-23E, højde: 8 m

Aktuelle vejr

Denne rapport blev lavet for 8 timer og 6 minutter siden, kl. 11:00 UTC
Vind 4 kt fra vestsydvest
Temperatur -2°C
Fugtighed 59%
Tryk 1027 hPa
Sigt 10 km eller mere
Nogle få skyer i en højde af 2000 ft
Spredte skyer i en højde af 4500 ft

METAR: RJCO 151100Z 24004KT 9999 FEW020 SCT045 M02/M09 Q1027

Tid: 04:06 (19:06 UTC)


TAF: fraværende

Vejrobservationer og prognoser fra mere end 4000 lufthavne (METAR og TAF).

De gule og røde prikker repræsenterer de meteorologiske stationer.

Flyt musen over at se navnet på stationen.

Så klik over at se vejr observationer og prognoser.

At skifte det kort: Klik på de grønne knapper med et sort kors for at zoome ind; på den grønne knap med en bindestreg for at zoome ud; eller på de grønne pile for tilstødende kort.


METAR-TAF: